EGXC - Coningsby Royal Air Force Base
Distance from station: E 5mi, 14km
Updated: 02/22/2018 1:50pm
Clear
Clear
 Wind from E
Wind: E 6 mph , 9 km/h
Temperature: 30°F , -1°C
Wind Chill: 24°F , -4°C
Dew Point: 28°F , -2°C
Humidity: 93%
Barometer: 30.27 inHg , 1025 hPa
Summary: Clear
Visibility: greater than 7 miles , 10 km
2018/02/22 21:50 EGXC 222150Z 08005KT CAVOK M01/M02 Q1025 BLU